Fukuei Maru — JD3285 — position and weather

sailwx.info

Track history (hours):
 
Tides and Currents Weather Stations Pressure Air Temp Water Temp Dewpoint Dewpoint Depression Visibility Wind Speed Wind Dir Waves Ship Positions

Fukuei Maru

Last reported at 2018-Feb-21 14:09 UTC. Time now 2018-Feb-21 22:54 UTC.
Position N 34°59' E 139°27'.

Length 58 m; draft 4 m.

Type: Cargo ship. MMSI: 431003166.

Date/timePositionNaut miles runAvg speedWind from/ knotsBaromVisibWave heightAir tempDewpointWater temp
2018-Feb-21 14:09N 34°59' E 139°27'510.0
2018-Feb-21 13:42N 35°02' E 139°32'210.4
2018-Feb-21 13:28N 35°03' E 139°34'510.5
2018-Feb-21 12:59N 35°06' E 139°39'611.0
2018-Feb-21 12:28N 35°10' E 139°44'510.5
2018-Feb-21 12:01N 35°14' E 139°46'510.3
2018-Feb-21 11:30N 35°19' E 139°43'510.1
2018-Feb-21 11:01N 35°24' E 139°43'510.2
2018-Feb-21 10:30N 35°27' E 139°47'8 9.0
2018-Feb-21 09:35N 35°35' E 139°51'3 8.5
2018-Feb-21 09:16N 35°37' E 139°48'1 3.2
2018-Feb-21 08:56N 35°37' E 139°47'0 0.0
2018-Feb-21 08:23N 35°37' E 139°47'0 0.0
2018-Feb-21 00:06N 35°37' E 139°47'0 0.0
2018-Feb-20 23:36N 35°37' E 139°47'0 0.0
2018-Feb-20 23:21N 35°37' E 139°47'2 5.0
2018-Feb-20 23:00N 35°37' E 139°49'2 4.6
2018-Feb-20 22:30N 35°35' E 139°51'4 7.6
2018-Feb-20 21:56N 35°35' E 139°57'510.6
2018-Feb-20 21:30N 35°33' E 140°02'4 7.1
2018-Feb-20 21:00N 35°33' E 140°06'0 0.0
2018-Feb-20 20:29N 35°33' E 140°06'0 0.0
2018-Feb-20 19:59N 35°33' E 140°06'0 0.0
2018-Feb-20 19:29N 35°33' E 140°06'0 0.0
2018-Feb-20 18:59N 35°33' E 140°06'0 0.0
2018-Feb-20 18:29N 35°33' E 140°06'0 0.0
2018-Feb-20 17:59N 35°33' E 140°06'0 0.0
2018-Feb-20 17:29N 35°33' E 140°06'0 0.0
2018-Feb-20 16:59N 35°33' E 140°06'0 0.0
2018-Feb-20 16:29N 35°33' E 140°06'0 0.0
2018-Feb-20 15:59N 35°33' E 140°06'0 0.0
2018-Feb-20 15:29N 35°33' E 140°06'0 0.0
2018-Feb-20 14:59N 35°33' E 140°06'0 0.0
2018-Feb-20 14:29N 35°33' E 140°06'0 0.0
2018-Feb-20 13:59N 35°33' E 140°06'0 0.0
2018-Feb-20 13:29N 35°33' E 140°06'0 0.0
2018-Feb-20 12:59N 35°33' E 140°06'0 0.0
2018-Feb-20 12:29N 35°33' E 140°06'0 0.0
2018-Feb-20 11:59N 35°33' E 140°06'0 0.0
2018-Feb-20 11:29N 35°33' E 140°06'0 0.0
2018-Feb-20 10:59N 35°33' E 140°06'0 0.0
2018-Feb-20 10:29N 35°33' E 140°06'0 0.0
2018-Feb-20 09:59N 35°33' E 140°06'0 0.0
2018-Feb-20 09:29N 35°33' E 140°06'0 0.0
2018-Feb-20 08:59N 35°33' E 140°06'0 0.0
2018-Feb-20 08:29N 35°33' E 140°06'0 0.0
2018-Feb-20 07:59N 35°33' E 140°06'0 0.0
2018-Feb-20 07:29N 35°33' E 140°06'0 0.0
2018-Feb-20 06:59N 35°33' E 140°06'0 0.0
2018-Feb-20 06:29N 35°33' E 140°06'0 0.0
2018-Feb-20 05:59N 35°33' E 140°06'0 0.0
2018-Feb-20 05:29N 35°33' E 140°06'0 0.0
2018-Feb-20 04:59N 35°33' E 140°06'0 0.0
2018-Feb-20 04:29N 35°33' E 140°06'0 0.0
2018-Feb-20 03:59N 35°33' E 140°06'0 0.0
2018-Feb-20 03:29N 35°33' E 140°06'0 0.0
2018-Feb-20 02:59N 35°33' E 140°06'0 0.0
2018-Feb-20 02:29N 35°33' E 140°06'0 0.0
2018-Feb-20 01:59N 35°33' E 140°06'0 0.0
2018-Feb-20 01:29N 35°33' E 140°06'0 0.0
2018-Feb-20 00:59N 35°33' E 140°06'0 0.0
2018-Feb-20 00:29N 35°33' E 140°06'0 0.0
2018-Feb-19 23:59N 35°33' E 140°06'0 0.0
2018-Feb-19 23:29N 35°33' E 140°06'2 4.2
2018-Feb-19 23:00N 35°34' E 140°04'0 0.1
2018-Feb-19 22:30N 35°34' E 140°04'0 0.0
2018-Feb-19 22:00N 35°34' E 140°04'0 0.0
2018-Feb-19 21:24N 35°34' E 140°04'0 0.0
2018-Feb-19 21:00N 35°34' E 140°04'0 0.0
2018-Feb-19 20:30N 35°34' E 140°04'0 0.0
2018-Feb-19 20:00N 35°34' E 140°04'0 0.0
2018-Feb-19 19:30N 35°34' E 140°04'0 0.0
2018-Feb-19 19:00N 35°34' E 140°04'0 0.0
2018-Feb-19 18:30N 35°34' E 140°04'0 0.0
2018-Feb-19 18:00N 35°34' E 140°04'0 0.0
2018-Feb-19 17:30N 35°34' E 140°04'0 0.0
2018-Feb-19 16:57N 35°34' E 140°04'0 0.0
2018-Feb-19 16:30N 35°34' E 140°04'0 0.0
2018-Feb-19 16:00N 35°34' E 140°04'0 0.0
2018-Feb-19 15:30N 35°34' E 140°04'0 0.0
2018-Feb-19 15:00N 35°34' E 140°04'0 0.0
2018-Feb-19 14:21N 35°34' E 140°04'0 0.0
2018-Feb-19 14:00N 35°34' E 140°04'0 0.0
2018-Feb-19 13:27N 35°34' E 140°04'0 0.0
2018-Feb-19 13:00N 35°34' E 140°04'0 0.0
2018-Feb-19 12:30N 35°34' E 140°04'0 0.0
2018-Feb-19 12:00N 35°34' E 140°04'0 0.0
2018-Feb-19 11:30N 35°34' E 140°04'0 0.0
2018-Feb-19 11:00N 35°34' E 140°04'0 0.0
2018-Feb-19 10:30N 35°34' E 140°04'0 1.0
2018-Feb-19 10:01N 35°34' E 140°04'510.0
2018-Feb-19 09:30N 35°31' E 139°59'510.5
2018-Feb-19 09:00N 35°29' E 139°53'611.1
2018-Feb-19 08:30N 35°25' E 139°48'511.1
2018-Feb-19 08:00N 35°20' E 139°45'510.4
2018-Feb-19 07:30N 35°15' E 139°47'510.9
2018-Feb-19 07:00N 35°10' E 139°46'810.5
2018-Feb-19 06:12N 35°04' E 139°40'211.0
2018-Feb-19 06:01N 35°03' E 139°37'911.3
2018-Feb-19 05:14N 34°60' E 139°27'311.8
2018-Feb-19 05:00N 34°58' E 139°24'711.7
2018-Feb-19 04:25N 34°54' E 139°18'511.7
2018-Feb-19 03:57N 34°50' E 139°13'511.2
2018-Feb-19 03:30N 34°46' E 139°09'510.4
2018-Feb-19 03:01N 34°43' E 139°04'710.5
2018-Feb-19 02:22N 34°38' E 138°58'410.6
2018-Feb-19 01:59N 34°37' E 138°54'5 9.8
2018-Feb-19 01:30N 34°35' E 138°48'5 9.9
2018-Feb-19 00:57N 34°36' E 138°42'610.6
2018-Feb-19 00:22N 34°35' E 138°34'510.7
2018-Feb-18 23:52N 34°36' E 138°28'510.6
2018-Feb-18 23:25N 34°35' E 138°22'4911.0
2018-Feb-18 18:57N 34°33' E 137°23'610.9
2018-Feb-18 18:25N 34°31' E 137°16'116 8.5
2018-Feb-18 04:42N 33°48' E 135°05'311.1
2018-Feb-18 04:26N 33°51' E 135°03'511.2
2018-Feb-18 04:00N 33°54' E 134°59'510.5
2018-Feb-18 03:30N 33°58' E 134°55'510.6
2018-Feb-18 02:59N 34°02' E 134°51'510.9
2018-Feb-18 02:30N 34°06' E 134°47'611.1
2018-Feb-18 01:59N 34°11' E 134°42'5 9.8
2018-Feb-18 01:28N 34°15' E 134°39'510.5
2018-Feb-18 01:00N 34°16' E 134°33'1 1.9
2018-Feb-18 00:30N 34°16' E 134°32'510.2
2018-Feb-17 23:59N 34°19' E 134°26'510.3
2018-Feb-17 23:30N 34°21' E 134°21'82 9.7
2018-Feb-17 14:59N 34°04' E 132°44'510.6
2018-Feb-17 14:30N 34°01' E 132°38'710.9
2018-Feb-17 13:52N 33°57' E 132°32'410.6
2018-Feb-17 13:30N 33°54' E 132°29'611.3
2018-Feb-17 12:57N 33°50' E 132°23'911.4
2018-Feb-17 12:09N 33°49' E 132°12'311.5
2018-Feb-17 11:55N 33°48' E 132°09'411.0
2018-Feb-17 11:31N 33°46' E 132°04'810.6
2018-Feb-17 10:43N 33°46' E 131°54'310.1
2018-Feb-17 10:27N 33°46' E 131°51'510.1
2018-Feb-17 10:00N 33°47' E 131°45'510.0
2018-Feb-17 09:30N 33°48' E 131°39'510.1
2018-Feb-17 09:01N 33°49' E 131°34'510.2
2018-Feb-17 08:31N 33°50' E 131°28'510.6
2018-Feb-17 08:01N 33°52' E 131°21'510.6
2018-Feb-17 07:31N 33°52' E 131°15'4 7.8
2018-Feb-17 06:59N 33°56' E 131°14'0 0.3
2018-Feb-17 06:25N 33°56' E 131°15'0 0.0
2018-Feb-17 05:55N 33°56' E 131°15'0 0.0
2018-Feb-17 05:28N 33°56' E 131°15'0 0.0
2018-Feb-17 04:55N 33°56' E 131°15'0 0.0
2018-Feb-17 04:28N 33°56' E 131°15'0 0.0
2018-Feb-17 03:52N 33°56' E 131°15'0 0.0
2018-Feb-17 03:25N 33°56' E 131°15'0 0.0
2018-Feb-17 02:55N 33°56' E 131°15'0 0.0
2018-Feb-17 02:25N 33°56' E 131°15'0 0.0
2018-Feb-17 01:58N 33°56' E 131°15'0 0.0
2018-Feb-17 01:28N 33°56' E 131°15'0 0.0
2018-Feb-17 00:58N 33°56' E 131°15'0 0.0
2018-Feb-17 00:25N 33°56' E 131°15'0 0.0
2018-Feb-16 23:58N 33°56' E 131°15'0 0.0
2018-Feb-16 23:31N 33°56' E 131°15'4 7.9
2018-Feb-16 23:00N 33°52' E 131°15'611.9
2018-Feb-16 22:28N 33°51' E 131°22'511.9
2018-Feb-16 22:00N 33°51' E 131°29'711.7
2018-Feb-16 21:25N 33°51' E 131°37'911.5
2018-Feb-16 20:37N 33°51' E 131°48'610.8
2018-Feb-16 20:05N 33°50' E 131°55'110.4
2018-Feb-16 20:00N 33°50' E 131°56'610.5
2018-Feb-16 19:28N 33°47' E 132°01'610.6
2018-Feb-16 18:57N 33°48' E 132°08'1311.3
2018-Feb-16 17:50N 33°51' E 132°23'511.8
2018-Feb-16 17:26N 33°54' E 132°27'612.2
2018-Feb-16 16:57N 33°57' E 132°33'612.5
2018-Feb-16 16:30N 34°01' E 132°37'7710.7
2018-Feb-16 09:18N 34°31' E 134°03'1911.0
2018-Feb-16 07:31N 34°41' E 134°24'010.3
2018-Feb-16 07:29N 34°41' E 134°25'510.6
2018-Feb-16 07:00N 34°43' E 134°30'510.5
2018-Feb-16 06:30N 34°44' E 134°36'4 7.4
2018-Feb-16 06:00N 34°46' E 134°39'0 0.0
2018-Feb-16 05:12N 34°46' E 134°39'0 0.0
2018-Feb-16 04:54N 34°46' E 134°39'0 0.0
2018-Feb-16 04:12N 34°46' E 134°39'0 0.0
2018-Feb-16 03:54N 34°46' E 134°39'0 0.0
2018-Feb-16 03:30N 34°46' E 134°39'0 0.0
2018-Feb-16 02:54N 34°46' E 134°39'0 0.0
2018-Feb-16 02:24N 34°46' E 134°39'0 0.0
2018-Feb-16 01:54N 34°46' E 134°39'0 0.0
2018-Feb-16 01:30N 34°46' E 134°39'0 0.0
2018-Feb-16 00:06N 34°46' E 134°39'0 0.0
2018-Feb-16 00:00N 34°46' E 134°39'0 0.0
2018-Feb-15 23:12N 34°46' E 134°39'0 0.0
2018-Feb-15 23:00N 34°46' E 134°39'0 0.0
2018-Feb-15 22:30N 34°46' E 134°39'3 0.6
2018-Feb-15 17:07N 34°44' E 134°37'910.9
2018-Feb-15 16:18N 34°41' E 134°27'9310.3
2018-Feb-15 07:16N 34°04' E 132°44'310.1
2018-Feb-15 07:00N 34°03' E 132°41'5 9.9
2018-Feb-15 06:30N 33°60' E 132°36'5 9.2
2018-Feb-15 06:00N 33°57' E 132°32'4 8.9
2018-Feb-15 05:30N 33°54' E 132°28'5 9.5
2018-Feb-15 04:58N 33°51' E 132°23'4 9.2
2018-Feb-15 04:30N 33°50' E 132°18'610.3
2018-Feb-15 03:58N 33°49' E 132°11'510.1
2018-Feb-15 03:30N 33°47' E 132°07'8 8.8
2018-Feb-15 02:37N 33°49' E 131°58'410.9
2018-Feb-15 02:15N 33°52' E 131°54'411.0
2018-Feb-15 01:52N 33°54' E 131°50'410.7
2018-Feb-15 01:30N 33°57' E 131°46'5 8.5
2018-Feb-15 00:56N 34°02' E 131°46'1 1.0
2018-Feb-15 00:18N 34°02' E 131°47'1 0.1
2018-Feb-14 02:05N 34°04' E 131°48'0 0.1
2018-Feb-14 02:00N 34°04' E 131°48'4 7.1
2018-Feb-14 01:29N 34°00' E 131°45'5 9.8
2018-Feb-14 01:00N 33°56' E 131°48'711.3
2018-Feb-14 00:23N 33°51' E 131°54'511.3
2018-Feb-13 23:58N 33°49' E 131°59'510.0
2018-Feb-13 23:29N 33°46' E 132°04'2010.1
2018-Feb-13 21:28N 33°53' E 132°27'7 9.7
2018-Feb-13 20:43N 33°58' E 132°33'2 9.3
2018-Feb-13 20:30N 33°60' E 132°35'610.7
2018-Feb-13 19:55N 34°03' E 132°41'7410.5
2018-Feb-13 12:52N 34°32' E 134°04'2510.9
2018-Feb-13 10:34N 34°43' E 134°31'111.0
2018-Feb-13 10:30N 34°43' E 134°32'511.0
2018-Feb-13 10:00N 34°42' E 134°39'611.2
2018-Feb-13 09:31N 34°40' E 134°45'611.1
2018-Feb-13 09:01N 34°38' E 134°51'611.2
2018-Feb-13 08:31N 34°38' E 134°58'510.2
2018-Feb-13 08:00N 34°36' E 135°04'510.8
2018-Feb-13 07:30N 34°36' E 135°11'510.4
2018-Feb-13 07:01N 34°37' E 135°17'5 9.7
2018-Feb-13 06:31N 34°38' E 135°23'3 5.7
2018-Feb-13 06:00N 34°37' E 135°26'0 0.0
2018-Feb-13 05:30N 34°37' E 135°26'0 0.0
2018-Feb-13 05:00N 34°37' E 135°26'0 0.0
2018-Feb-13 04:27N 34°37' E 135°26'0 0.0
2018-Feb-13 04:00N 34°37' E 135°26'0 0.0
2018-Feb-13 03:27N 34°37' E 135°26'0 0.0
2018-Feb-13 03:00N 34°37' E 135°26'0 0.0
2018-Feb-13 02:27N 34°37' E 135°26'0 0.0
2018-Feb-13 02:00N 34°37' E 135°26'0 0.0
2018-Feb-13 01:30N 34°37' E 135°26'0 0.0
2018-Feb-13 01:00N 34°37' E 135°26'0 0.0
2018-Feb-13 00:30N 34°37' E 135°26'0 0.0
2018-Feb-13 00:00N 34°37' E 135°26'0 0.0
2018-Feb-12 23:30N 34°37' E 135°26'0 0.0
2018-Feb-12 23:00N 34°37' E 135°26'0 0.0
2018-Feb-12 22:30N 34°37' E 135°26'0 0.0
2018-Feb-12 22:00N 34°37' E 135°26'0 0.0
2018-Feb-12 21:30N 34°37' E 135°26'0 0.0
2018-Feb-12 21:00N 34°37' E 135°26'0 0.0
2018-Feb-12 20:30N 34°37' E 135°26'0 0.0
2018-Feb-12 20:00N 34°37' E 135°26'0 0.0
2018-Feb-12 19:30N 34°37' E 135°26'0 0.0
2018-Feb-12 19:00N 34°37' E 135°26'0 0.0
2018-Feb-12 18:30N 34°37' E 135°26'0 0.0
2018-Feb-12 18:00N 34°37' E 135°26'0 0.0
2018-Feb-12 17:27N 34°37' E 135°26'0 0.0
2018-Feb-12 17:00N 34°37' E 135°26'0 0.0
2018-Feb-12 16:30N 34°37' E 135°26'0 0.0
2018-Feb-12 16:00N 34°37' E 135°26'0 0.0
2018-Feb-12 15:30N 34°37' E 135°26'0 0.0
2018-Feb-12 15:00N 34°37' E 135°26'0 0.0
2018-Feb-12 14:30N 34°37' E 135°26'0 0.0
2018-Feb-12 14:00N 34°37' E 135°26'0 0.0
2018-Feb-12 13:30N 34°37' E 135°26'0 0.0
2018-Feb-12 13:00N 34°37' E 135°26'0 0.0
2018-Feb-12 12:30N 34°37' E 135°26'0 0.0
2018-Feb-12 12:00N 34°37' E 135°26'0 0.0
2018-Feb-12 11:30N 34°37' E 135°26'0 0.0
2018-Feb-12 11:00N 34°37' E 135°26'0 0.0
2018-Feb-12 10:30N 34°37' E 135°26'0 0.0
2018-Feb-12 10:00N 34°37' E 135°26'0 0.0
2018-Feb-12 09:30N 34°37' E 135°26'0 0.0
2018-Feb-12 09:00N 34°37' E 135°26'0 0.0
2018-Feb-12 08:30N 34°37' E 135°26'0 0.0
2018-Feb-12 08:00N 34°37' E 135°26'0 0.0
2018-Feb-12 07:30N 34°37' E 135°26'0 0.0
2018-Feb-12 07:00N 34°37' E 135°26'0 0.0
2018-Feb-12 06:30N 34°37' E 135°26'0 0.0
2018-Feb-12 06:00N 34°37' E 135°26'1 2.3
2018-Feb-12 05:30N 34°37' E 135°25'5 9.5
2018-Feb-12 05:00N 34°36' E 135°19'510.9
2018-Feb-12 04:30N 34°35' E 135°13'611.1
2018-Feb-12 04:00N 34°35' E 135°06'612.7
2018-Feb-12 03:30N 34°37' E 134°59'612.5
2018-Feb-12 03:00N 34°34' E 134°52'611.1
2018-Feb-12 02:30N 34°32' E 134°46'611.0
2018-Feb-12 02:00N 34°30' E 134°40'510.9
2018-Feb-12 01:30N 34°28' E 134°33'9410.3
2018-Feb-11 16:23N 34°04' E 132°43'410.4
2018-Feb-11 16:00N 34°02' E 132°39'610.3
2018-Feb-11 15:26N 33°58' E 132°34'5 9.3
2018-Feb-11 14:54N 33°55' E 132°29'710.0
2018-Feb-11 14:10N 33°50' E 132°23'  
Track history (hours):
 
Tides and Currents Weather Stations Pressure Air Temp Water Temp Dewpoint Dewpoint Depression Visibility Wind Speed Wind Dir Waves Ship Positions

Fukuei Maru

Last reported at 2018-Feb-21 14:09 UTC. Time now 2018-Feb-21 22:54 UTC.
Position N 34°59' E 139°27'.

Length 58 m; draft 4 m.

Type: Cargo ship. MMSI: 431003166.

Date/timePositionNaut miles runAvg speedWind from/ knotsBaromVisibWave heightAir tempDewpointWater temp
2018-Feb-21 14:09N 34°59' E 139°27'510.0
2018-Feb-21 13:42N 35°02' E 139°32'210.4
2018-Feb-21 13:28N 35°03' E 139°34'510.5
2018-Feb-21 12:59N 35°06' E 139°39'611.0
2018-Feb-21 12:28N 35°10' E 139°44'510.5
2018-Feb-21 12:01N 35°14' E 139°46'510.3
2018-Feb-21 11:30N 35°19' E 139°43'510.1
2018-Feb-21 11:01N 35°24' E 139°43'510.2
2018-Feb-21 10:30N 35°27' E 139°47'8 9.0
2018-Feb-21 09:35N 35°35' E 139°51'3 8.5
2018-Feb-21 09:16N 35°37' E 139°48'1 3.2
2018-Feb-21 08:56N 35°37' E 139°47'0 0.0
2018-Feb-21 08:23N 35°37' E 139°47'0 0.0
2018-Feb-21 00:06N 35°37' E 139°47'0 0.0
2018-Feb-20 23:36N 35°37' E 139°47'0 0.0
2018-Feb-20 23:21N 35°37' E 139°47'2 5.0
2018-Feb-20 23:00N 35°37' E 139°49'2 4.6
2018-Feb-20 22:30N 35°35' E 139°51'4 7.6
2018-Feb-20 21:56N 35°35' E 139°57'510.6
2018-Feb-20 21:30N 35°33' E 140°02'4 7.1
2018-Feb-20 21:00N 35°33' E 140°06'0 0.0
2018-Feb-20 20:29N 35°33' E 140°06'0 0.0
2018-Feb-20 19:59N 35°33' E 140°06'0 0.0
2018-Feb-20 19:29N 35°33' E 140°06'0 0.0
2018-Feb-20 18:59N 35°33' E 140°06'0 0.0
2018-Feb-20 18:29N 35°33' E 140°06'0 0.0
2018-Feb-20 17:59N 35°33' E 140°06'0 0.0
2018-Feb-20 17:29N 35°33' E 140°06'0 0.0
2018-Feb-20 16:59N 35°33' E 140°06'0 0.0
2018-Feb-20 16:29N 35°33' E 140°06'0 0.0
2018-Feb-20 15:59N 35°33' E 140°06'0 0.0
2018-Feb-20 15:29N 35°33' E 140°06'0 0.0
2018-Feb-20 14:59N 35°33' E 140°06'0 0.0
2018-Feb-20 14:29N 35°33' E 140°06'0 0.0
2018-Feb-20 13:59N 35°33' E 140°06'0 0.0
2018-Feb-20 13:29N 35°33' E 140°06'0 0.0
2018-Feb-20 12:59N 35°33' E 140°06'0 0.0
2018-Feb-20 12:29N 35°33' E 140°06'0 0.0
2018-Feb-20 11:59N 35°33' E 140°06'0 0.0
2018-Feb-20 11:29N 35°33' E 140°06'0 0.0
2018-Feb-20 10:59N 35°33' E 140°06'0 0.0
2018-Feb-20 10:29N 35°33' E 140°06'0 0.0
2018-Feb-20 09:59N 35°33' E 140°06'0 0.0
2018-Feb-20 09:29N 35°33' E 140°06'0 0.0
2018-Feb-20 08:59N 35°33' E 140°06'0 0.0
2018-Feb-20 08:29N 35°33' E 140°06'0 0.0
2018-Feb-20 07:59N 35°33' E 140°06'0 0.0
2018-Feb-20 07:29N 35°33' E 140°06'0 0.0
2018-Feb-20 06:59N 35°33' E 140°06'0 0.0
2018-Feb-20 06:29N 35°33' E 140°06'0 0.0
2018-Feb-20 05:59N 35°33' E 140°06'0 0.0
2018-Feb-20 05:29N 35°33' E 140°06'0 0.0
2018-Feb-20 04:59N 35°33' E 140°06'0 0.0
2018-Feb-20 04:29N 35°33' E 140°06'0 0.0
2018-Feb-20 03:59N 35°33' E 140°06'0 0.0
2018-Feb-20 03:29N 35°33' E 140°06'0 0.0
2018-Feb-20 02:59N 35°33' E 140°06'0 0.0
2018-Feb-20 02:29N 35°33' E 140°06'0 0.0
2018-Feb-20 01:59N 35°33' E 140°06'0 0.0
2018-Feb-20 01:29N 35°33' E 140°06'0 0.0
2018-Feb-20 00:59N 35°33' E 140°06'0 0.0
2018-Feb-20 00:29N 35°33' E 140°06'0 0.0
2018-Feb-19 23:59N 35°33' E 140°06'0 0.0
2018-Feb-19 23:29N 35°33' E 140°06'2 4.2
2018-Feb-19 23:00N 35°34' E 140°04'0 0.1
2018-Feb-19 22:30N 35°34' E 140°04'0 0.0
2018-Feb-19 22:00N 35°34' E 140°04'0 0.0
2018-Feb-19 21:24N 35°34' E 140°04'0 0.0
2018-Feb-19 21:00N 35°34' E 140°04'0 0.0
2018-Feb-19 20:30N 35°34' E 140°04'0 0.0
2018-Feb-19 20:00N 35°34' E 140°04'0 0.0
2018-Feb-19 19:30N 35°34' E 140°04'0 0.0
2018-Feb-19 19:00N 35°34' E 140°04'0 0.0
2018-Feb-19 18:30N 35°34' E 140°04'0 0.0
2018-Feb-19 18:00N 35°34' E 140°04'0 0.0
2018-Feb-19 17:30N 35°34' E 140°04'0 0.0
2018-Feb-19 16:57N 35°34' E 140°04'0 0.0
2018-Feb-19 16:30N 35°34' E 140°04'0 0.0
2018-Feb-19 16:00N 35°34' E 140°04'0 0.0
2018-Feb-19 15:30N 35°34' E 140°04'0 0.0
2018-Feb-19 15:00N 35°34' E 140°04'0 0.0
2018-Feb-19 14:21N 35°34' E 140°04'0 0.0
2018-Feb-19 14:00N 35°34' E 140°04'0 0.0
2018-Feb-19 13:27N 35°34' E 140°04'0 0.0
2018-Feb-19 13:00N 35°34' E 140°04'0 0.0
2018-Feb-19 12:30N 35°34' E 140°04'0 0.0
2018-Feb-19 12:00N 35°34' E 140°04'0 0.0
2018-Feb-19 11:30N 35°34' E 140°04'0 0.0
2018-Feb-19 11:00N 35°34' E 140°04'0 0.0
2018-Feb-19 10:30N 35°34' E 140°04'0 1.0
2018-Feb-19 10:01N 35°34' E 140°04'510.0
2018-Feb-19 09:30N 35°31' E 139°59'510.5
2018-Feb-19 09:00N 35°29' E 139°53'611.1
2018-Feb-19 08:30N 35°25' E 139°48'511.1
2018-Feb-19 08:00N 35°20' E 139°45'510.4
2018-Feb-19 07:30N 35°15' E 139°47'510.9
2018-Feb-19 07:00N 35°10' E 139°46'810.5
2018-Feb-19 06:12N 35°04' E 139°40'211.0
2018-Feb-19 06:01N 35°03' E 139°37'911.3
2018-Feb-19 05:14N 34°60' E 139°27'311.8
2018-Feb-19 05:00N 34°58' E 139°24'711.7
2018-Feb-19 04:25N 34°54' E 139°18'511.7
2018-Feb-19 03:57N 34°50' E 139°13'511.2
2018-Feb-19 03:30N 34°46' E 139°09'510.4
2018-Feb-19 03:01N 34°43' E 139°04'710.5
2018-Feb-19 02:22N 34°38' E 138°58'410.6
2018-Feb-19 01:59N 34°37' E 138°54'5 9.8
2018-Feb-19 01:30N 34°35' E 138°48'5 9.9
2018-Feb-19 00:57N 34°36' E 138°42'610.6
2018-Feb-19 00:22N 34°35' E 138°34'510.7
2018-Feb-18 23:52N 34°36' E 138°28'510.6
2018-Feb-18 23:25N 34°35' E 138°22'4911.0
2018-Feb-18 18:57N 34°33' E 137°23'610.9
2018-Feb-18 18:25N 34°31' E 137°16'116 8.5
2018-Feb-18 04:42N 33°48' E 135°05'311.1
2018-Feb-18 04:26N 33°51' E 135°03'511.2
2018-Feb-18 04:00N 33°54' E 134°59'510.5
2018-Feb-18 03:30N 33°58' E 134°55'510.6
2018-Feb-18 02:59N 34°02' E 134°51'510.9
2018-Feb-18 02:30N 34°06' E 134°47'611.1
2018-Feb-18 01:59N 34°11' E 134°42'5 9.8
2018-Feb-18 01:28N 34°15' E 134°39'510.5
2018-Feb-18 01:00N 34°16' E 134°33'1 1.9
2018-Feb-18 00:30N 34°16' E 134°32'510.2
2018-Feb-17 23:59N 34°19' E 134°26'510.3
2018-Feb-17 23:30N 34°21' E 134°21'82 9.7
2018-Feb-17 14:59N 34°04' E 132°44'510.6
2018-Feb-17 14:30N 34°01' E 132°38'710.9
2018-Feb-17 13:52N 33°57' E 132°32'410.6
2018-Feb-17 13:30N 33°54' E 132°29'611.3
2018-Feb-17 12:57N 33°50' E 132°23'911.4
2018-Feb-17 12:09N 33°49' E 132°12'311.5
2018-Feb-17 11:55N 33°48' E 132°09'411.0
2018-Feb-17 11:31N 33°46' E 132°04'810.6
2018-Feb-17 10:43N 33°46' E 131°54'310.1
2018-Feb-17 10:27N 33°46' E 131°51'510.1
2018-Feb-17 10:00N 33°47' E 131°45'510.0
2018-Feb-17 09:30N 33°48' E 131°39'510.1
2018-Feb-17 09:01N 33°49' E 131°34'510.2
2018-Feb-17 08:31N 33°50' E 131°28'510.6
2018-Feb-17 08:01N 33°52' E 131°21'510.6
2018-Feb-17 07:31N 33°52' E 131°15'4 7.8
2018-Feb-17 06:59N 33°56' E 131°14'0 0.3
2018-Feb-17 06:25N 33°56' E 131°15'0 0.0
2018-Feb-17 05:55N 33°56' E 131°15'0 0.0
2018-Feb-17 05:28N 33°56' E 131°15'0 0.0
2018-Feb-17 04:55N 33°56' E 131°15'0 0.0
2018-Feb-17 04:28N 33°56' E 131°15'0 0.0
2018-Feb-17 03:52N 33°56' E 131°15'0 0.0
2018-Feb-17 03:25N 33°56' E 131°15'0 0.0
2018-Feb-17 02:55N 33°56' E 131°15'0 0.0
2018-Feb-17 02:25N 33°56' E 131°15'0 0.0
2018-Feb-17 01:58N 33°56' E 131°15'0 0.0
2018-Feb-17 01:28N 33°56' E 131°15'0 0.0
2018-Feb-17 00:58N 33°56' E 131°15'0 0.0
2018-Feb-17 00:25N 33°56' E 131°15'0 0.0
2018-Feb-16 23:58N 33°56' E 131°15'0 0.0
2018-Feb-16 23:31N 33°56' E 131°15'4 7.9
2018-Feb-16 23:00N 33°52' E 131°15'611.9
2018-Feb-16 22:28N 33°51' E 131°22'511.9
2018-Feb-16 22:00N 33°51' E 131°29'711.7
2018-Feb-16 21:25N 33°51' E 131°37'911.5
2018-Feb-16 20:37N 33°51' E 131°48'610.8
2018-Feb-16 20:05N 33°50' E 131°55'110.4
2018-Feb-16 20:00N 33°50' E 131°56'610.5
2018-Feb-16 19:28N 33°47' E 132°01'610.6
2018-Feb-16 18:57N 33°48' E 132°08'1311.3
2018-Feb-16 17:50N 33°51' E 132°23'511.8
2018-Feb-16 17:26N 33°54' E 132°27'612.2
2018-Feb-16 16:57N 33°57' E 132°33'612.5
2018-Feb-16 16:30N 34°01' E 132°37'7710.7
2018-Feb-16 09:18N 34°31' E 134°03'1911.0
2018-Feb-16 07:31N 34°41' E 134°24'010.3
2018-Feb-16 07:29N 34°41' E 134°25'510.6
2018-Feb-16 07:00N 34°43' E 134°30'510.5
2018-Feb-16 06:30N 34°44' E 134°36'4 7.4
2018-Feb-16 06:00N 34°46' E 134°39'0 0.0
2018-Feb-16 05:12N 34°46' E 134°39'0 0.0
2018-Feb-16 04:54N 34°46' E 134°39'0 0.0
2018-Feb-16 04:12N 34°46' E 134°39'0 0.0
2018-Feb-16 03:54N 34°46' E 134°39'0 0.0
2018-Feb-16 03:30N 34°46' E 134°39'0 0.0
2018-Feb-16 02:54N 34°46' E 134°39'0 0.0
2018-Feb-16 02:24N 34°46' E 134°39'0 0.0
2018-Feb-16 01:54N 34°46' E 134°39'0 0.0
2018-Feb-16 01:30N 34°46' E 134°39'0 0.0
2018-Feb-16 00:06N 34°46' E 134°39'0 0.0
2018-Feb-16 00:00N 34°46' E 134°39'0 0.0
2018-Feb-15 23:12N 34°46' E 134°39'0 0.0
2018-Feb-15 23:00N 34°46' E 134°39'0 0.0
2018-Feb-15 22:30N 34°46' E 134°39'3 0.6
2018-Feb-15 17:07N 34°44' E 134°37'910.9
2018-Feb-15 16:18N 34°41' E 134°27'9310.3
2018-Feb-15 07:16N 34°04' E 132°44'310.1
2018-Feb-15 07:00N 34°03' E 132°41'5 9.9
2018-Feb-15 06:30N 33°60' E 132°36'5 9.2
2018-Feb-15 06:00N 33°57' E 132°32'4 8.9
2018-Feb-15 05:30N 33°54' E 132°28'5 9.5
2018-Feb-15 04:58N 33°51' E 132°23'4 9.2
2018-Feb-15 04:30N 33°50' E 132°18'610.3
2018-Feb-15 03:58N 33°49' E 132°11'510.1
2018-Feb-15 03:30N 33°47' E 132°07'8 8.8
2018-Feb-15 02:37N 33°49' E 131°58'410.9
2018-Feb-15 02:15N 33°52' E 131°54'411.0
2018-Feb-15 01:52N 33°54' E 131°50'410.7
2018-Feb-15 01:30N 33°57' E 131°46'5 8.5
2018-Feb-15 00:56N 34°02' E 131°46'1 1.0
2018-Feb-15 00:18N 34°02' E 131°47'1 0.1
2018-Feb-14 02:05N 34°04' E 131°48'0 0.1
2018-Feb-14 02:00N 34°04' E 131°48'4 7.1
2018-Feb-14 01:29N 34°00' E 131°45'5 9.8
2018-Feb-14 01:00N 33°56' E 131°48'711.3
2018-Feb-14 00:23N 33°51' E 131°54'511.3
2018-Feb-13 23:58N 33°49' E 131°59'510.0
2018-Feb-13 23:29N 33°46' E 132°04'2010.1
2018-Feb-13 21:28N 33°53' E 132°27'7 9.7
2018-Feb-13 20:43N 33°58' E 132°33'2 9.3
2018-Feb-13 20:30N 33°60' E 132°35'610.7
2018-Feb-13 19:55N 34°03' E 132°41'7410.5
2018-Feb-13 12:52N 34°32' E 134°04'2510.9
2018-Feb-13 10:34N 34°43' E 134°31'111.0
2018-Feb-13 10:30N 34°43' E 134°32'511.0
2018-Feb-13 10:00N 34°42' E 134°39'611.2
2018-Feb-13 09:31N 34°40' E 134°45'611.1
2018-Feb-13 09:01N 34°38' E 134°51'611.2
2018-Feb-13 08:31N 34°38' E 134°58'510.2
2018-Feb-13 08:00N 34°36' E 135°04'510.8
2018-Feb-13 07:30N 34°36' E 135°11'510.4
2018-Feb-13 07:01N 34°37' E 135°17'5 9.7
2018-Feb-13 06:31N 34°38' E 135°23'3 5.7
2018-Feb-13 06:00N 34°37' E 135°26'0 0.0
2018-Feb-13 05:30N 34°37' E 135°26'0 0.0
2018-Feb-13 05:00N 34°37' E 135°26'0 0.0
2018-Feb-13 04:27N 34°37' E 135°26'0 0.0
2018-Feb-13 04:00N 34°37' E 135°26'0 0.0
2018-Feb-13 03:27N 34°37' E 135°26'0 0.0
2018-Feb-13 03:00N 34°37' E 135°26'0 0.0
2018-Feb-13 02:27N 34°37' E 135°26'0 0.0
2018-Feb-13 02:00N 34°37' E 135°26'0 0.0
2018-Feb-13 01:30N 34°37' E 135°26'0 0.0
2018-Feb-13 01:00N 34°37' E 135°26'0 0.0
2018-Feb-13 00:30N 34°37' E 135°26'0 0.0
2018-Feb-13 00:00N 34°37' E 135°26'0 0.0
2018-Feb-12 23:30N 34°37' E 135°26'0 0.0
2018-Feb-12 23:00N 34°37' E 135°26'0 0.0
2018-Feb-12 22:30N 34°37' E 135°26'0 0.0
2018-Feb-12 22:00N 34°37' E 135°26'0 0.0
2018-Feb-12 21:30N 34°37' E 135°26'0 0.0
2018-Feb-12 21:00N 34°37' E 135°26'0 0.0
2018-Feb-12 20:30N 34°37' E 135°26'0 0.0
2018-Feb-12 20:00N 34°37' E 135°26'0 0.0
2018-Feb-12 19:30N 34°37' E 135°26'0 0.0
2018-Feb-12 19:00N 34°37' E 135°26'0 0.0
2018-Feb-12 18:30N 34°37' E 135°26'0 0.0
2018-Feb-12 18:00N 34°37' E 135°26'0 0.0
2018-Feb-12 17:27N 34°37' E 135°26'0 0.0
2018-Feb-12 17:00N 34°37' E 135°26'0 0.0
2018-Feb-12 16:30N 34°37' E 135°26'0 0.0
2018-Feb-12 16:00N 34°37' E 135°26'0 0.0
2018-Feb-12 15:30N 34°37' E 135°26'0 0.0
2018-Feb-12 15:00N 34°37' E 135°26'0 0.0
2018-Feb-12 14:30N 34°37' E 135°26'0 0.0
2018-Feb-12 14:00N 34°37' E 135°26'0 0.0
2018-Feb-12 13:30N 34°37' E 135°26'0 0.0
2018-Feb-12 13:00N 34°37' E 135°26'0 0.0
2018-Feb-12 12:30N 34°37' E 135°26'0 0.0
2018-Feb-12 12:00N 34°37' E 135°26'0 0.0
2018-Feb-12 11:30N 34°37' E 135°26'0 0.0
2018-Feb-12 11:00N 34°37' E 135°26'0 0.0
2018-Feb-12 10:30N 34°37' E 135°26'0 0.0
2018-Feb-12 10:00N 34°37' E 135°26'0 0.0
2018-Feb-12 09:30N 34°37' E 135°26'0 0.0
2018-Feb-12 09:00N 34°37' E 135°26'0 0.0
2018-Feb-12 08:30N 34°37' E 135°26'0 0.0
2018-Feb-12 08:00N 34°37' E 135°26'0 0.0
2018-Feb-12 07:30N 34°37' E 135°26'0 0.0
2018-Feb-12 07:00N 34°37' E 135°26'0 0.0
2018-Feb-12 06:30N 34°37' E 135°26'0 0.0
2018-Feb-12 06:00N 34°37' E 135°26'1 2.3
2018-Feb-12 05:30N 34°37' E 135°25'5 9.5
2018-Feb-12 05:00N 34°36' E 135°19'510.9
2018-Feb-12 04:30N 34°35' E 135°13'611.1
2018-Feb-12 04:00N 34°35' E 135°06'612.7
2018-Feb-12 03:30N 34°37' E 134°59'612.5
2018-Feb-12 03:00N 34°34' E 134°52'611.1
2018-Feb-12 02:30N 34°32' E 134°46'611.0
2018-Feb-12 02:00N 34°30' E 134°40'510.9
2018-Feb-12 01:30N 34°28' E 134°33'9410.3
2018-Feb-11 16:23N 34°04' E 132°43'410.4
2018-Feb-11 16:00N 34°02' E 132°39'610.3
2018-Feb-11 15:26N 33°58' E 132°34'5 9.3
2018-Feb-11 14:54N 33°55' E 132°29'710.0
2018-Feb-11 14:10N 33°50' E 132°23'  

Dump ship's entire track history